Gas City, Indiana
Current Conditions -  °F | °C
As of 3:55 PM on Tuesday 27 Jan 2015 (Local Time) from KMZZ Reporting Station
Clear Clear  
Wind Chill: 19°   Ceiling: Unl
Heat Index: 26°   Visibility: 7mi
Dew Point: 12°   Wind: 6mph
Humidity: 58%   Direction: 320°NW
Pressure: 30.16"   Gusts: NA
Location:  40.49°N, 85.61°W
Report Text: KMZZ 272055Z AUTO 32005KT 7SM CLR M04/M11 A3016 RMK AO2 T10361109
Loading
Personal Weather Stations






























Interactive Weather Map New forecast layout! Learn more

10-Day Weather Forecast

Advertisements
Track Severe Weather on mobile